Time;durP1;ratioP1;P1;durP2;ratioP2;P2;SDS_P1;SDS_P2;PMS_P1;PMS_P2;Temp;Humidity;BMP_temperature;BMP_pressure;BME280_temperature;BME280_humidity;BME280_pressure;Samples;Min_cycle;Max_cycle;Signal;HPM_P1;HPM_P2
2023/12/27 00:00:39;;;;;;;23.02;7.40;;;;;;;-146.25;100.00;70816.00;5081627;28;20045;-63
2023/12/27 00:03:04;;;;;;;26.70;7.07;;;;;;;-146.25;100.00;70816.00;5082947;28;20023;-63
2023/12/27 00:05:30;;;;;;;24.60;7.70;;;;;;;-146.25;100.00;70816.00;5074818;28;20028;-63
2023/12/27 00:07:56;;;;;;;22.77;7.40;;;;;;;-146.25;100.00;70816.00;5076432;28;20164;-64
2023/12/27 00:10:21;;;;;;;23.23;7.25;;;;;;;-146.25;100.00;70816.00;5077858;28;20104;-63
2023/12/27 00:12:47;;;;;;;24.45;7.63;;;;;;;-146.25;100.00;70816.00;5079445;28;20046;-64
2023/12/27 00:15:12;;;;;;;24.80;8.40;;;;;;;-146.25;100.00;70816.00;5080367;28;20341;-64
2023/12/27 00:17:37;;;;;;;26.23;9.40;;;;;;;-146.25;100.00;70816.00;5075574;28;20478;-64
2023/12/27 00:20:03;;;;;;;22.23;8.20;;;;;;;-146.25;100.00;70816.00;5078101;28;20484;-63
2023/12/27 00:22:28;;;;;;;23.42;7.85;;;;;;;-146.25;100.00;70816.00;5085074;28;20032;-63
2023/12/27 00:24:54;;;;;;;22.70;7.72;;;;;;;-146.25;100.00;70816.00;5085384;28;20448;-63
2023/12/27 00:27:19;;;;;;;25.63;8.13;;;;;;;-146.25;100.00;70816.00;5084193;28;20031;-63
2023/12/27 00:29:44;;;;;;;20.88;7.70;;;;;;;-146.25;100.00;70816.00;5085066;28;20020;-62
2023/12/27 00:32:11;;;;;;;25.20;8.10;;;;;;;-146.25;100.00;70816.00;5084776;28;20475;-63
2023/12/27 00:34:37;;;;;;;23.65;8.13;;;;;;;-146.25;100.00;70816.00;5090962;27;20031;-63
2023/12/27 00:37:03;;;;;;;24.00;7.53;;;;;;;-146.25;100.00;70816.00;5079957;28;20023;-63
2023/12/27 00:39:28;;;;;;;23.58;8.23;;;;;;;-146.25;100.00;70816.00;5088874;28;20557;-64
2023/12/27 00:41:53;;;;;;;26.38;7.85;;;;;;;-146.25;100.00;70816.00;5082932;28;20415;-65
2023/12/27 00:44:19;;;;;;;23.92;8.35;;;;;;;-146.25;100.00;70816.00;5085075;28;20059;-64
2023/12/27 00:46:45;;;;;;;23.50;7.88;;;;;;;-146.25;100.00;70816.00;5077204;28;20025;-63
2023/12/27 00:49:10;;;;;;;23.88;8.05;;;;;;;-146.25;100.00;70816.00;5077149;28;20384;-64
2023/12/27 00:51:35;;;;;;;27.30;8.30;;;;;;;-146.25;100.00;70816.00;5080921;28;20020;-63
2023/12/27 00:54:01;;;;;;;23.27;8.05;;;;;;;-146.25;100.00;70816.00;5087666;28;20085;-64
2023/12/27 00:56:26;;;;;;;23.80;7.32;;;;;;;-146.25;100.00;70816.00;5083168;28;20480;-63
2023/12/27 00:58:51;;;;;;;25.48;7.20;;;;;;;-146.25;100.00;70816.00;5079072;28;20088;-64
2023/12/27 01:01:17;;;;;;;22.98;7.30;;;;;;;-146.25;100.00;70816.00;5079640;28;20340;-64
2023/12/27 01:03:42;;;;;;;23.70;8.38;;;;;;;-146.25;100.00;70816.00;5076741;28;20477;-65
2023/12/27 01:06:09;;;;;;;24.08;7.38;;;;;;;-146.25;100.00;70816.00;5076038;28;20162;-63
2023/12/27 01:08:35;;;;;;;25.02;7.93;;;;;;;-146.25;100.00;70816.00;5077053;28;20027;-63
2023/12/27 01:11:01;;;;;;;25.48;8.00;;;;;;;-146.25;100.00;70816.00;5077519;28;20127;-63
2023/12/27 01:13:26;;;;;;;22.33;7.65;;;;;;;-146.25;100.00;70816.00;5077787;28;20024;-63
2023/12/27 01:15:51;;;;;;;24.40;7.18;;;;;;;-146.25;100.00;70816.00;5086069;28;20044;-63
2023/12/27 01:18:17;;;;;;;23.63;7.68;;;;;;;-146.25;100.00;70816.00;5081063;28;20169;-64
2023/12/27 01:20:42;;;;;;;24.23;7.45;;;;;;;-146.25;100.00;70816.00;5075020;28;20028;-63
2023/12/27 01:23:07;;;;;;;21.75;7.60;;;;;;;-146.25;100.00;70816.00;5075916;28;20028;-63
2023/12/27 01:25:33;;;;;;;23.10;7.10;;;;;;;-146.25;100.00;70816.00;5075708;28;20044;-63
2023/12/27 01:27:58;;;;;;;23.70;7.95;;;;;;;-146.25;100.00;70816.00;5081829;28;20106;-63
2023/12/27 01:30:23;;;;;;;25.83;7.82;;;;;;;-146.25;100.00;70816.00;5082168;28;20099;-63
2023/12/27 01:32:48;;;;;;;23.65;8.40;;;;;;;-146.25;100.00;70816.00;5083294;28;20020;-64
2023/12/27 01:35:15;;;;;;;24.42;8.05;;;;;;;-146.25;100.00;70816.00;5080266;28;20068;-64
2023/12/27 01:37:40;;;;;;;28.27;8.38;;;;;;;-146.25;100.00;70816.00;5074441;28;20123;-63
2023/12/27 01:40:06;;;;;;;24.42;8.30;;;;;;;-146.25;100.00;70816.00;5077705;28;20119;-63
2023/12/27 01:42:33;;;;;;;25.20;8.43;;;;;;;-146.25;100.00;70816.00;5074535;28;20028;-63
2023/12/27 01:44:59;;;;;;;25.60;8.68;;;;;;;-146.25;100.00;70816.00;5081655;28;20017;-62
2023/12/27 01:47:25;;;;;;;23.90;8.73;;;;;;;-146.25;100.00;70816.00;5078523;28;20039;-63
2023/12/27 01:49:51;;;;;;;26.17;8.90;;;;;;;-146.25;100.00;70816.00;5082952;28;20459;-63
2023/12/27 01:52:16;;;;;;;24.08;8.73;;;;;;;-146.25;100.00;70816.00;5077087;28;20039;-63
2023/12/27 01:54:42;;;;;;;23.90;8.23;;;;;;;-146.25;100.00;70816.00;5076616;28;20107;-62
2023/12/27 01:57:08;;;;;;;27.75;8.82;;;;;;;-146.25;100.00;70816.00;5075471;28;20020;-62
2023/12/27 01:59:33;;;;;;;23.48;8.50;;;;;;;-146.25;100.00;70816.00;5078285;28;20062;-62
2023/12/27 02:01:59;;;;;;;22.95;7.88;;;;;;;-146.25;100.00;70816.00;5075582;28;20042;-62
2023/12/27 02:04:24;;;;;;;27.05;8.75;;;;;;;-146.25;100.00;70816.00;5076032;28;20028;-61
2023/12/27 02:06:51;;;;;;;24.90;8.70;;;;;;;-146.25;100.00;70816.00;5078747;28;20032;-61
2023/12/27 02:09:16;;;;;;;25.23;9.05;;;;;;;-146.25;100.00;70816.00;5084996;28;20059;-62
2023/12/27 02:11:42;;;;;;;26.08;8.98;;;;;;;-146.25;100.00;70816.00;5083051;28;20051;-61
2023/12/27 02:14:07;;;;;;;22.73;8.57;;;;;;;-146.25;100.00;70816.00;5082828;28;20478;-61
2023/12/27 02:16:34;;;;;;;24.25;8.20;;;;;;;-146.25;100.00;70816.00;5076747;28;20052;-62
2023/12/27 02:19:01;;;;;;;25.40;8.52;;;;;;;-146.25;100.00;70816.00;5083505;28;20074;-61
2023/12/27 02:21:28;;;;;;;26.27;8.63;;;;;;;-146.25;100.00;70816.00;5085808;28;20436;-62
2023/12/27 02:23:58;;;;;;;25.30;8.40;;;;;;;-146.25;100.00;70816.00;5078120;28;20537;-61
2023/12/27 02:26:23;;;;;;;23.90;8.25;;;;;;;-146.25;100.00;70816.00;5080300;28;20407;-62
2023/12/27 02:28:49;;;;;;;25.13;8.55;;;;;;;-146.25;100.00;70816.00;5084786;28;20473;-61
2023/12/27 02:31:14;;;;;;;25.83;8.55;;;;;;;-146.25;100.00;70816.00;5089763;28;20043;-63
2023/12/27 02:33:44;;;;;;;23.33;8.18;;;;;;;-146.25;100.00;70816.00;5086083;28;20495;-61
2023/12/27 02:36:09;;;;;;;25.48;8.55;;;;;;;-146.25;100.00;70816.00;5087439;28;20095;-62
2023/12/27 02:38:35;;;;;;;25.73;8.93;;;;;;;-146.25;100.00;70816.00;5083055;28;20032;-61
2023/12/27 02:41:02;;;;;;;26.88;8.73;;;;;;;-146.25;100.00;70816.00;5081393;28;20024;-61
2023/12/27 02:43:27;;;;;;;26.92;8.75;;;;;;;-146.25;100.00;70816.00;5078847;28;20036;-61
2023/12/27 02:45:52;;;;;;;27.15;8.77;;;;;;;-146.25;100.00;70816.00;5082448;28;20027;-61
2023/12/27 02:48:18;;;;;;;25.00;9.07;;;;;;;-146.25;100.00;70816.00;5076548;28;20115;-62
2023/12/27 02:50:44;;;;;;;24.08;8.45;;;;;;;-146.25;100.00;70816.00;5083985;28;20021;-61
2023/12/27 02:53:10;;;;;;;23.92;8.48;;;;;;;-146.25;100.00;70816.00;5086199;28;20153;-61
2023/12/27 02:55:36;;;;;;;23.48;8.55;;;;;;;-146.25;100.00;70816.00;5079807;28;20029;-62
2023/12/27 02:58:01;;;;;;;26.92;9.13;;;;;;;-146.25;100.00;70816.00;5084275;28;20089;-62
2023/12/27 03:00:26;;;;;;;26.45;9.43;;;;;;;-146.25;100.00;70816.00;5087145;28;20071;-62
2023/12/27 03:02:52;;;;;;;25.63;9.30;;;;;;;-146.25;100.00;70816.00;5083799;28;20027;-62
2023/12/27 03:05:17;;;;;;;24.52;8.65;;;;;;;-146.25;100.00;70816.00;5085129;28;20023;-61
2023/12/27 03:07:42;;;;;;;24.63;8.55;;;;;;;-146.25;100.00;70816.00;5089519;28;20039;-62
2023/12/27 03:10:07;;;;;;;24.65;8.93;;;;;;;-146.25;100.00;70816.00;5081773;28;20020;-62
2023/12/27 03:12:34;;;;;;;27.15;8.73;;;;;;;-146.25;100.00;70816.00;5080041;28;20447;-62
2023/12/27 03:14:59;;;;;;;24.95;9.35;;;;;;;-146.25;100.00;70816.00;5083914;28;20597;-62
2023/12/27 03:17:24;;;;;;;28.70;9.25;;;;;;;-146.25;100.00;70816.00;5080752;28;20114;-62
2023/12/27 03:19:50;;;;;;;27.17;9.20;;;;;;;-146.25;100.00;70816.00;5080203;28;20050;-61
2023/12/27 03:22:15;;;;;;;25.73;8.80;;;;;;;-146.25;100.00;70816.00;5082964;28;20501;-64
2023/12/27 03:24:40;;;;;;;27.30;9.10;;;;;;;-146.25;100.00;70816.00;5086943;28;20046;-64
2023/12/27 03:27:05;;;;;;;25.13;8.85;;;;;;;-146.25;100.00;70816.00;5086695;28;20028;-65
2023/12/27 03:29:31;;;;;;;29.27;9.93;;;;;;;-146.25;100.00;70816.00;5086632;28;20472;-65
2023/12/27 03:31:56;;;;;;;24.75;9.73;;;;;;;-146.25;100.00;70816.00;5088185;28;20427;-63
2023/12/27 03:34:21;;;;;;;24.83;8.85;;;;;;;-146.25;100.00;70816.00;5084245;28;20170;-63
2023/12/27 03:36:46;;;;;;;27.48;9.95;;;;;;;-146.25;100.00;70816.00;5081426;28;20023;-66
2023/12/27 03:39:12;;;;;;;25.17;9.00;;;;;;;-146.25;100.00;70816.00;5088960;28;20055;-63
2023/12/27 03:41:37;;;;;;;23.80;9.38;;;;;;;-146.25;100.00;70816.00;5089174;28;20034;-62
2023/12/27 03:44:02;;;;;;;27.40;9.90;;;;;;;-146.25;100.00;70816.00;5082959;28;20028;-66
2023/12/27 03:46:28;;;;;;;27.13;9.10;;;;;;;-146.25;100.00;70816.00;5083599;28;20357;-63
2023/12/27 03:48:53;;;;;;;26.95;9.52;;;;;;;-146.25;100.00;70816.00;5090387;28;20032;-63
2023/12/27 03:51:21;;;;;;;28.45;9.60;;;;;;;-146.25;100.00;70816.00;5079163;28;20282;-63
2023/12/27 03:53:46;;;;;;;25.88;9.23;;;;;;;-146.25;100.00;70816.00;5081664;28;20027;-63
2023/12/27 03:56:11;;;;;;;24.73;9.43;;;;;;;-146.25;100.00;70816.00;5081769;28;20028;-63
2023/12/27 03:58:37;;;;;;;27.58;9.98;;;;;;;-146.25;100.00;70816.00;5088771;28;20541;-63
2023/12/27 04:01:02;;;;;;;25.83;9.80;;;;;;;-146.25;100.00;70816.00;5081896;28;20067;-63
2023/12/27 04:03:27;;;;;;;26.80;9.20;;;;;;;-146.25;100.00;70816.00;5091260;28;20035;-63
2023/12/27 04:05:52;;;;;;;24.38;9.32;;;;;;;-146.25;100.00;70816.00;5082957;28;20032;-64
2023/12/27 04:08:18;;;;;;;25.27;9.10;;;;;;;-146.25;100.00;70816.00;5086561;28;20445;-62
2023/12/27 04:10:43;;;;;;;24.75;8.98;;;;;;;-146.25;100.00;70816.00;5082807;28;20138;-63
2023/12/27 04:13:08;;;;;;;26.10;9.55;;;;;;;-146.25;100.00;70816.00;5083084;28;20052;-64
2023/12/27 04:15:34;;;;;;;28.55;9.80;;;;;;;-146.25;100.00;70816.00;5080685;28;20041;-62
2023/12/27 04:17:59;;;;;;;25.80;8.82;;;;;;;-146.25;100.00;70816.00;5077930;28;20040;-62
2023/12/27 04:20:24;;;;;;;25.20;9.05;;;;;;;-146.25;100.00;70816.00;5079825;28;20033;-62
2023/12/27 04:22:49;;;;;;;23.88;8.77;;;;;;;-146.25;100.00;70816.00;5084361;28;20101;-62
2023/12/27 04:25:15;;;;;;;23.17;8.57;;;;;;;-146.25;100.00;70816.00;5084862;28;20035;-62
2023/12/27 04:27:40;;;;;;;24.25;9.02;;;;;;;-146.25;100.00;70816.00;5083146;28;20081;-62
2023/12/27 04:30:06;;;;;;;24.85;8.45;;;;;;;-146.25;100.00;70816.00;5080856;28;20692;-62
2023/12/27 04:32:31;;;;;;;27.92;9.20;;;;;;;-146.25;100.00;70816.00;5077041;28;20040;-62
2023/12/27 04:34:57;;;;;;;31.35;8.63;;;;;;;-146.25;100.00;70816.00;5080129;28;21011;-62
2023/12/27 04:37:22;;;;;;;24.88;8.77;;;;;;;-146.25;100.00;70816.00;5076923;28;20032;-63
2023/12/27 04:39:47;;;;;;;26.33;8.20;;;;;;;-146.25;100.00;70816.00;5076135;28;20037;-64
2023/12/27 04:42:12;;;;;;;24.65;8.15;;;;;;;-146.25;100.00;70816.00;5076592;28;20036;-63
2023/12/27 04:44:39;;;;;;;27.15;8.50;;;;;;;-146.25;100.00;70816.00;5077579;28;20032;-62
2023/12/27 04:47:04;;;;;;;27.13;8.38;;;;;;;-146.25;100.00;70816.00;5077491;28;20552;-62
2023/12/27 04:49:29;;;;;;;25.13;8.00;;;;;;;-146.25;100.00;70816.00;5078097;28;20103;-62
2023/12/27 04:51:55;;;;;;;24.63;8.23;;;;;;;-146.25;100.00;70816.00;5077655;28;20035;-63
2023/12/27 04:54:21;;;;;;;25.23;8.32;;;;;;;-146.25;100.00;70816.00;5079209;28;20545;-63
2023/12/27 04:56:46;;;;;;;24.15;7.72;;;;;;;-146.25;100.00;70816.00;5075844;28;20039;-62
2023/12/27 04:59:11;;;;;;;24.00;7.40;;;;;;;-146.25;100.00;70816.00;5080025;28;20058;-62
2023/12/27 05:01:36;;;;;;;23.38;7.68;;;;;;;-146.25;100.00;70816.00;5085473;28;20062;-62
2023/12/27 05:04:02;;;;;;;25.60;7.57;;;;;;;-146.25;100.00;70816.00;5078473;28;20115;-62
2023/12/27 05:06:27;;;;;;;22.02;7.07;;;;;;;-146.25;100.00;70816.00;5080800;28;20024;-63
2023/12/27 05:08:53;;;;;;;24.35;7.35;;;;;;;-146.25;100.00;70816.00;5087551;28;20031;-62
2023/12/27 05:11:19;;;;;;;25.17;6.82;;;;;;;-146.25;100.00;70816.00;5078191;28;20926;-63
2023/12/27 05:13:45;;;;;;;24.27;7.18;;;;;;;-146.25;100.00;70816.00;5077969;28;20075;-63
2023/12/27 05:16:17;;;;;;;27.30;7.00;;;;;;;-146.25;100.00;70816.00;5084274;28;20443;-62
2023/12/27 05:18:44;;;;;;;21.60;6.70;;;;;;;-146.25;100.00;70816.00;5082939;28;20106;-62
2023/12/27 05:21:11;;;;;;;24.92;6.38;;;;;;;-146.25;100.00;70816.00;5077227;28;20020;-63
2023/12/27 05:23:37;;;;;;;22.45;6.47;;;;;;;-146.25;100.00;70816.00;5085627;28;20110;-62
2023/12/27 05:26:04;;;;;;;22.92;6.30;;;;;;;-146.25;100.00;70816.00;5077882;28;20123;-62
2023/12/27 05:28:29;;;;;;;25.08;6.25;;;;;;;-146.25;100.00;70816.00;5085936;28;20035;-63
2023/12/27 05:30:54;;;;;;;24.70;6.03;;;;;;;-146.25;100.00;70816.00;5084330;28;20093;-63
2023/12/27 05:33:20;;;;;;;23.98;6.60;;;;;;;-146.25;100.00;70816.00;5081960;28;20062;-65
2023/12/27 05:35:46;;;;;;;24.25;6.15;;;;;;;-146.25;100.00;70816.00;5076657;28;20047;-63
2023/12/27 05:38:11;;;;;;;23.10;5.60;;;;;;;-146.25;100.00;70816.00;5083002;28;20028;-63
2023/12/27 05:40:36;;;;;;;22.23;5.85;;;;;;;-146.25;100.00;70816.00;5075956;28;20020;-62
2023/12/27 05:43:02;;;;;;;23.23;5.50;;;;;;;-146.25;100.00;70816.00;5080816;28;20028;-62
2023/12/27 05:45:27;;;;;;;22.50;5.53;;;;;;;-146.25;100.00;70816.00;5079942;28;20391;-63
2023/12/27 05:47:53;;;;;;;23.52;6.05;;;;;;;-146.25;100.00;70816.00;5079242;28;20553;-63
2023/12/27 05:50:18;;;;;;;21.73;5.80;;;;;;;-146.25;100.00;70816.00;5082716;28;20025;-64
2023/12/27 05:52:43;;;;;;;21.73;5.38;;;;;;;-146.25;100.00;70816.00;5081363;28;20025;-63
2023/12/27 05:55:09;;;;;;;23.05;5.57;;;;;;;-146.25;100.00;70816.00;5079011;28;20503;-61
2023/12/27 05:57:34;;;;;;;20.35;6.10;;;;;;;-146.25;100.00;70816.00;5080781;28;20024;-60
2023/12/27 06:00:00;;;;;;;21.65;5.55;;;;;;;-146.25;100.00;70816.00;5085636;28;20109;-61
2023/12/27 06:02:25;;;;;;;22.55;5.90;;;;;;;-146.25;100.00;70816.00;5079375;28;20033;-62
2023/12/27 06:04:50;;;;;;;23.00;6.50;;;;;;;-146.25;100.00;70816.00;5083728;28;20024;-62
2023/12/27 06:07:16;;;;;;;20.75;5.30;;;;;;;-146.25;100.00;70816.00;5077166;28;20020;-62
2023/12/27 06:09:41;;;;;;;20.65;5.80;;;;;;;-146.25;100.00;70816.00;5084378;28;20036;-64
2023/12/27 06:12:09;;;;;;;23.45;5.97;;;;;;;-146.25;100.00;70816.00;5086364;28;20153;-62
2023/12/27 06:14:35;;;;;;;21.38;5.85;;;;;;;-146.25;100.00;70816.00;5078758;28;20484;-63
2023/12/27 06:17:01;;;;;;;21.98;5.70;;;;;;;-146.25;100.00;70816.00;5075274;28;20155;-64
2023/12/27 06:19:28;;;;;;;20.88;5.47;;;;;;;-146.25;100.00;70816.00;5078006;28;20115;-62
2023/12/27 06:21:53;;;;;;;21.52;6.28;;;;;;;-146.25;100.00;70816.00;5074366;28;20027;-62
2023/12/27 06:24:19;;;;;;;23.27;5.95;;;;;;;-146.25;100.00;70816.00;5077510;28;20036;-63
2023/12/27 06:26:45;;;;;;;22.48;5.82;;;;;;;-146.25;100.00;70816.00;5075273;28;20034;-63
2023/12/27 06:29:10;;;;;;;21.40;5.82;;;;;;;-146.25;100.00;70816.00;5074384;28;20029;-63
2023/12/27 06:31:35;;;;;;;22.05;5.53;;;;;;;-146.25;100.00;70816.00;5073498;28;20028;-63
2023/12/27 06:34:01;;;;;;;22.65;5.90;;;;;;;-146.25;100.00;70816.00;5078102;28;21007;-62
2023/12/27 06:36:27;;;;;;;23.02;5.93;;;;;;;-146.25;100.00;70816.00;5076727;28;20112;-63
2023/12/27 06:38:52;;;;;;;22.92;5.85;;;;;;;-146.25;100.00;70816.00;5078172;28;20024;-63
2023/12/27 06:41:18;;;;;;;24.23;6.25;;;;;;;-146.25;100.00;70816.00;5072999;28;20464;-63
2023/12/27 06:43:43;;;;;;;19.00;5.43;;;;;;;-146.25;100.00;70816.00;5074366;28;20154;-63
2023/12/27 06:46:09;;;;;;;21.95;5.90;;;;;;;-146.25;100.00;70816.00;5077034;28;20039;-63
2023/12/27 06:48:34;;;;;;;22.30;5.95;;;;;;;-146.25;100.00;70816.00;5073350;28;20484;-63
2023/12/27 06:51:03;;;;;;;23.90;6.72;;;;;;;-146.25;100.00;70816.00;5075032;28;20356;-63
2023/12/27 06:53:28;;;;;;;25.20;6.25;;;;;;;-146.25;100.00;70816.00;5075799;28;20089;-62
2023/12/27 06:55:54;;;;;;;23.83;6.13;;;;;;;-146.25;100.00;70816.00;5076828;28;20017;-63
2023/12/27 06:58:19;;;;;;;24.67;6.93;;;;;;;-146.25;100.00;70816.00;5075163;28;20028;-63
2023/12/27 07:00:44;;;;;;;24.38;5.88;;;;;;;-146.25;100.00;70816.00;5073924;28;20128;-63
2023/12/27 07:03:10;;;;;;;23.13;6.57;;;;;;;-146.25;100.00;70816.00;5075222;28;20395;-63
2023/12/27 07:05:36;;;;;;;22.33;6.13;;;;;;;-146.25;100.00;70816.00;5075376;28;20485;-63
2023/12/27 07:08:02;;;;;;;22.60;6.10;;;;;;;-146.25;100.00;70816.00;5072248;28;20024;-63
2023/12/27 07:10:27;;;;;;;22.33;6.63;;;;;;;-146.25;100.00;70816.00;5075732;28;20037;-63
2023/12/27 07:12:53;;;;;;;20.15;6.35;;;;;;;-146.25;100.00;70816.00;5083561;28;20046;-63
2023/12/27 07:15:18;;;;;;;19.55;6.00;;;;;;;-146.25;100.00;70816.00;5074686;28;20048;-63
2023/12/27 07:17:43;;;;;;;23.08;6.68;;;;;;;-146.25;100.00;70816.00;5074156;28;20090;-63
2023/12/27 07:20:10;;;;;;;21.15;6.32;;;;;;;-146.25;100.00;70816.00;5076649;28;20123;-63
2023/12/27 07:22:35;;;;;;;22.63;6.13;;;;;;;-146.25;100.00;70816.00;5071880;28;20036;-63
2023/12/27 07:25:00;;;;;;;21.83;6.65;;;;;;;-146.25;100.00;70816.00;5072050;28;20035;-63
2023/12/27 07:27:26;;;;;;;23.92;6.60;;;;;;;-146.25;100.00;70816.00;5088282;28;20460;-64
2023/12/27 07:29:51;;;;;;;21.00;6.35;;;;;;;-146.25;100.00;70816.00;5078366;28;20032;-62
2023/12/27 07:32:16;;;;;;;22.02;6.70;;;;;;;-146.25;100.00;70816.00;5085666;28;20064;-64
2023/12/27 07:34:42;;;;;;;21.30;6.40;;;;;;;-146.25;100.00;70816.00;5095886;28;20437;-64
2023/12/27 07:37:08;;;;;;;19.58;6.80;;;;;;;-146.25;100.00;70816.00;5078316;28;20036;-62
2023/12/27 07:39:33;;;;;;;21.10;7.20;;;;;;;-146.25;100.00;70816.00;5087399;28;20021;-62
2023/12/27 07:41:59;;;;;;;20.33;6.40;;;;;;;-146.25;100.00;70816.00;5094537;28;20035;-63
2023/12/27 07:44:24;;;;;;;22.35;6.78;;;;;;;-146.25;100.00;70816.00;5102125;28;20431;-62
2023/12/27 07:46:50;;;;;;;20.83;6.75;;;;;;;-146.25;100.00;70816.00;5101702;28;20365;-62
2023/12/27 07:49:15;;;;;;;20.38;6.93;;;;;;;-146.25;100.00;70816.00;5101989;28;20063;-63
2023/12/27 07:51:40;;;;;;;21.38;6.50;;;;;;;-146.25;100.00;70816.00;5100411;28;20028;-62
2023/12/27 07:54:05;;;;;;;21.33;6.65;;;;;;;-146.25;100.00;70816.00;5105714;28;20367;-58
2023/12/27 07:56:32;;;;;;;20.92;6.72;;;;;;;-146.25;100.00;70816.00;5109514;27;20152;-64
2023/12/27 07:58:57;;;;;;;23.08;7.75;;;;;;;-146.25;100.00;70816.00;5094262;28;20119;-64
2023/12/27 08:01:23;;;;;;;20.42;7.25;;;;;;;-146.25;100.00;70816.00;5091747;28;20103;-64
2023/12/27 08:03:49;;;;;;;20.70;7.22;;;;;;;-146.25;100.00;70816.00;5091626;28;20049;-64
2023/12/27 08:06:14;;;;;;;21.90;7.70;;;;;;;-146.25;100.00;70816.00;5103425;28;20568;-64
2023/12/27 08:08:39;;;;;;;23.35;8.27;;;;;;;-146.25;100.00;70816.00;5090174;28;20060;-64
2023/12/27 08:11:05;;;;;;;22.38;7.50;;;;;;;-146.25;100.00;70816.00;5073602;28;20029;-64
2023/12/27 08:13:31;;;;;;;21.35;8.05;;;;;;;-146.25;100.00;70816.00;5074532;28;20028;-65
2023/12/27 08:15:57;;;;;;;21.27;8.15;;;;;;;-146.25;100.00;70816.00;5073229;28;20488;-64
2023/12/27 08:18:23;;;;;;;21.33;7.88;;;;;;;-146.25;100.00;70816.00;5075204;28;20075;-67
2023/12/27 08:20:48;;;;;;;22.25;8.77;;;;;;;-146.25;100.00;70816.00;5080560;28;20036;-64
2023/12/27 08:23:16;;;;;;;23.35;8.85;;;;;;;-146.25;100.00;70816.00;5100379;28;20402;-64
2023/12/27 08:25:41;;;;;;;21.13;8.00;;;;;;;-146.25;100.00;70816.00;5094107;28;20027;-64
2023/12/27 08:28:08;;;;;;;21.15;8.23;;;;;;;-146.25;100.00;70816.00;5098329;28;20036;-65
2023/12/27 08:30:33;;;;;;;23.13;8.73;;;;;;;-146.25;100.00;70816.00;5096390;28;20376;-65
2023/12/27 08:32:59;;;;;;;24.30;9.60;;;;;;;-146.25;100.00;70816.00;5097220;28;20042;-65
2023/12/27 08:35:25;;;;;;;22.77;8.98;;;;;;;-146.25;100.00;70816.00;5079184;28;20510;-64
2023/12/27 08:37:50;;;;;;;24.35;9.05;;;;;;;-146.25;100.00;70816.00;5088275;28;20042;-65
2023/12/27 08:40:17;;;;;;;23.10;8.20;;;;;;;-146.25;100.00;70816.00;5091757;27;20109;-65
2023/12/27 08:42:43;;;;;;;20.92;8.80;;;;;;;-146.25;100.00;70816.00;5076851;28;20032;-65
2023/12/27 08:45:08;;;;;;;23.20;9.57;;;;;;;-146.25;100.00;70816.00;5077424;28;20031;-65
2023/12/27 08:47:34;;;;;;;23.13;8.93;;;;;;;-146.25;100.00;70816.00;5068686;28;20028;-65
2023/12/27 08:49:59;;;;;;;21.30;8.45;;;;;;;-146.25;100.00;70816.00;5093228;28;20036;-64
2023/12/27 08:52:25;;;;;;;23.70;8.75;;;;;;;-146.25;100.00;70816.00;5089084;28;20039;-65
2023/12/27 08:54:52;;;;;;;24.73;10.70;;;;;;;-146.25;100.00;70816.00;5088945;28;20512;-64
2023/12/27 08:57:17;;;;;;;27.27;12.68;;;;;;;-146.25;100.00;70816.00;5089475;28;20469;-64
2023/12/27 08:59:43;;;;;;;24.63;9.38;;;;;;;-146.25;100.00;70816.00;5088329;28;20039;-65
2023/12/27 09:02:09;;;;;;;22.65;7.82;;;;;;;-146.25;100.00;70816.00;5103866;28;20054;-65
2023/12/27 09:04:34;;;;;;;21.33;7.63;;;;;;;-146.25;100.00;70816.00;5105964;28;20127;-64
2023/12/27 09:06:59;;;;;;;21.75;7.50;;;;;;;-146.25;100.00;70816.00;5107348;28;20088;-65
2023/12/27 09:09:25;;;;;;;22.08;8.18;;;;;;;-146.25;100.00;70816.00;5107380;28;20118;-65
2023/12/27 09:11:50;;;;;;;22.52;8.57;;;;;;;-146.25;100.00;70816.00;5107629;28;20092;-65
2023/12/27 09:14:15;;;;;;;25.73;10.13;;;;;;;-146.25;100.00;70816.00;5107411;28;20102;-65
2023/12/27 09:16:41;;;;;;;22.85;7.75;;;;;;;-146.25;100.00;70816.00;5108674;28;20044;-65
2023/12/27 09:19:06;;;;;;;19.60;6.70;;;;;;;-146.25;100.00;70816.00;5107542;28;20046;-64
2023/12/27 09:21:31;;;;;;;20.58;6.50;;;;;;;-146.25;100.00;70816.00;5108706;28;20167;-65
2023/12/27 09:23:58;;;;;;;20.23;6.45;;;;;;;-146.25;100.00;70816.00;5108637;28;20613;-64
2023/12/27 09:26:23;;;;;;;20.55;6.25;;;;;;;-146.25;100.00;70816.00;5108450;28;20076;-64
2023/12/27 09:28:48;;;;;;;20.13;6.07;;;;;;;-146.25;100.00;70816.00;5108734;28;20027;-64
2023/12/27 09:31:14;;;;;;;28.60;10.60;;;;;;;-146.25;100.00;70816.00;5108661;28;20092;-64
2023/12/27 09:33:42;;;;;;;22.63;6.43;;;;;;;-146.25;100.00;70816.00;5108492;28;20027;-64
2023/12/27 09:36:08;;;;;;;19.52;6.15;;;;;;;-146.25;100.00;70816.00;5108661;28;20031;-65
2023/12/27 09:38:33;;;;;;;21.38;6.00;;;;;;;-146.25;100.00;70816.00;5102623;28;20039;-65
2023/12/27 09:40:58;;;;;;;18.25;5.55;;;;;;;-146.25;100.00;70816.00;5078492;28;20024;-65
2023/12/27 09:43:25;;;;;;;18.92;5.97;;;;;;;-146.25;100.00;70816.00;5089141;28;20563;-65
2023/12/27 09:45:52;;;;;;;20.77;6.50;;;;;;;-146.25;100.00;70816.00;5095902;28;20035;-65
2023/12/27 09:48:19;;;;;;;21.42;8.13;;;;;;;-146.25;100.00;70816.00;5108918;28;20489;-65
2023/12/27 09:50:44;;;;;;;20.13;6.20;;;;;;;-146.25;100.00;70816.00;5097364;28;20043;-65
2023/12/27 09:53:11;;;;;;;17.25;5.60;;;;;;;-146.25;100.00;70816.00;5108440;27;20031;-65
2023/12/27 09:55:36;;;;;;;19.33;5.43;;;;;;;-146.25;100.00;70816.00;5102754;28;20484;-64
2023/12/27 09:58:04;;;;;;;18.08;5.45;;;;;;;-146.25;100.00;70816.00;5099117;28;20081;-64
2023/12/27 10:00:33;;;;;;;18.63;5.50;;;;;;;-146.25;100.00;70816.00;5102660;28;20036;-64
2023/12/27 10:03:03;;;;;;;21.17;6.80;;;;;;;-146.25;100.00;70816.00;5087988;28;20849;-63
2023/12/27 10:06:03;;;;;;;18.92;5.97;;;;;;;-146.25;100.00;70816.00;5087701;28;20028;-64
2023/12/27 10:08:29;;;;;;;18.98;5.30;;;;;;;-146.25;100.00;70816.00;5088744;28;20128;-64
2023/12/27 10:10:54;;;;;;;18.63;5.47;;;;;;;-146.25;100.00;70816.00;5095741;28;20461;-64
2023/12/27 10:13:21;;;;;;;16.90;4.68;;;;;;;-146.25;100.00;70816.00;5099810;28;20461;-64
2023/12/27 10:15:46;;;;;;;19.13;6.15;;;;;;;-146.25;100.00;70816.00;5102130;28;20055;-64
2023/12/27 10:18:11;;;;;;;19.63;5.60;;;;;;;-146.25;100.00;70816.00;5104266;28;20089;-64
2023/12/27 10:20:38;;;;;;;15.80;4.32;;;;;;;-146.25;100.00;70816.00;5101504;28;20582;-65
2023/12/27 10:23:04;;;;;;;16.55;4.55;;;;;;;-146.25;100.00;70816.00;5107345;28;20040;-64
2023/12/27 10:25:29;;;;;;;14.60;4.18;;;;;;;-146.25;100.00;70816.00;5087370;28;20461;-64
2023/12/27 10:27:55;;;;;;;15.40;4.40;;;;;;;-146.25;100.00;70816.00;5088933;28;20028;-64
2023/12/27 10:30:21;;;;;;;18.98;5.25;;;;;;;-146.25;100.00;70816.00;5089010;28;20031;-64
2023/12/27 10:33:00;;;;;;;14.90;4.20;;;;;;;-146.25;100.00;70816.00;5088921;28;20107;-64
2023/12/27 10:35:27;;;;;;;14.25;4.00;;;;;;;-146.25;100.00;70816.00;5069134;28;20028;-64
2023/12/27 10:38:00;;;;;;;15.68;3.88;;;;;;;-146.25;100.00;70816.00;5096662;28;20031;-65
2023/12/27 10:40:25;;;;;;;17.23;3.90;;;;;;;-146.25;100.00;70816.00;5109325;28;20086;-64
2023/12/27 10:42:52;;;;;;;12.68;3.85;;;;;;;-146.25;100.00;70816.00;5109356;28;20475;-64
2023/12/27 10:45:17;;;;;;;16.27;4.50;;;;;;;-146.25;100.00;70816.00;5109451;28;20386;-66
2023/12/27 10:47:44;;;;;;;16.05;4.78;;;;;;;-146.25;100.00;70816.00;5109540;28;20080;-65
2023/12/27 10:50:12;;;;;;;17.38;4.22;;;;;;;-146.25;100.00;70816.00;5109548;28;20028;-64
2023/12/27 10:52:41;;;;;;;15.98;4.18;;;;;;;-146.25;100.00;70816.00;5109006;28;20353;-65
2023/12/27 10:55:08;;;;;;;14.48;3.67;;;;;;;-146.25;100.00;70816.00;5109467;28;20119;-65